Ashford, AL

4:18 PM CDT on October 23, 2014 (GMT -0500)
South Dothan | Change Station
CLOSE
Current Station
Personal Weather Station
Location: Dothan, AL
Elevation: 305 ft
Nearby Weather Stations

Elev 305 ft 31.18 °N, 85.37 °W | Updated 1 minute ago

Clear
Clear
72.1 °F
Feels Like 77 °F
N
2.7
Wind Variable Wind from North

Today
High -- | Low -- °F
--% Chance of Precip.
Yesterday
High -- | Low -- °F
Precip. -- in
6:49 AM 6:00 PM
Waning Crescent, 0% visible
Pressure 30.05 in
Visibility 7.0 miles
Clouds Mostly Cloudy 3300 ft
Heat Index 77 °F
Dew Point 44 °F
Humidity 37%
Rainfall 0.00 in
Snow Depth Not available.
UV 1 out of 12
Pollen 1.60 out of 12
Air Quality Not available.
Flu Activity Sporadic
METAR KDHN 232053Z COR VRB04KT 7SM BKN033 23/06 A3005 RMK AO2 SLP174 T02330061 56017

More Conditions Fewer Conditions

Pressure 30.05 in
Visibility 7.0 miles
Clouds Mostly Cloudy 3300 ft
Heat Index 77 °F
Dew Point 44 °F
Humidity 37%
Rainfall 0.00 in
Snow Depth Not available.
UV 1 out of 12
Pollen 1.60 out of 12
Air Quality Not available.
Flu Activity Sporadic
METAR KDHN 232053Z COR VRB04KT 7SM BKN033 23/06 A3005 RMK AO2 SLP174 T02330061 56017

More Conditions Fewer Conditions

10-Day Weather Forecast

Almanac

Astronomy

Oct. 23, 2014 Rise Set
Actual Time 6:49 AM CDT 6:00 PM CDT
Civil Twilight 6:24 AM CDT 6:25 PM CDT
Nautical Twilight 5:56 AM CDT 6:53 PM CDT
Astronomical Twilight 5:28 AM CDT 7:21 PM CDT
Moon 6:29 AM CDT 6:01 PM CDT
Length of Visible Light 12h 00m
Length of Day
11h 11m
Tomorrow will be 1m 45s shorter.
Waning Crescent, 0% of the Moon is Illuminated
Today
Waning Crescent
Oct 23
New
Oct 30
First Quarter
Nov 6
Full
Nov 14
Last Quarter

Today's Extremes

State Highs State Lows

Community

WunderPhotos

Upload Photos

1,764,372 photos uploaded!

WunderBlogs® & News

Nearby

Snow Depth

Station Depth Elevation
No new snow has been reported.

Earthquake Activity

City Distance Mag. Time & Date
No recent earthquake activity has been reported nearby.
Minimum magnitude displayed is 2.5.

Coastal Water Temperatures

Place Temperature
No Stations Reporting

Nearby Weather Stations